sensor_id;sensor_type;location;lat;lon;timestamp;pressure;altitude;pressure_sealevel;temperature;humidity
76424;BME280;65257;52.104;4.268;2023-12-20T00:01:00;101497.53;;;7.53;79.86
76424;BME280;65257;52.104;4.268;2023-12-20T00:03:25;101491.28;;;7.54;80.25
76424;BME280;65257;52.104;4.268;2023-12-20T00:05:51;101505.34;;;7.54;80.45
76424;BME280;65257;52.104;4.268;2023-12-20T00:08:16;101494.69;;;7.56;80.82
76424;BME280;65257;52.104;4.268;2023-12-20T00:10:43;101501.47;;;7.60;80.80
76424;BME280;65257;52.104;4.268;2023-12-20T00:13:09;101489.63;;;7.65;80.31
76424;BME280;65257;52.104;4.268;2023-12-20T00:15:34;101471.97;;;7.66;79.83
76424;BME280;65257;52.104;4.268;2023-12-20T00:18:00;101478.00;;;7.68;79.60
76424;BME280;65257;52.104;4.268;2023-12-20T00:20:26;101481.69;;;7.65;78.82
76424;BME280;65257;52.104;4.268;2023-12-20T00:22:52;101477.53;;;7.61;79.00
76424;BME280;65257;52.104;4.268;2023-12-20T00:25:17;101484.94;;;7.56;78.69
76424;BME280;65257;52.104;4.268;2023-12-20T00:27:43;101488.81;;;7.51;79.24
76424;BME280;65257;52.104;4.268;2023-12-20T00:30:09;101479.41;;;7.47;79.94
76424;BME280;65257;52.104;4.268;2023-12-20T00:32:35;101489.31;;;7.43;79.68
76424;BME280;65257;52.104;4.268;2023-12-20T00:35:01;101509.56;;;7.44;79.69
76424;BME280;65257;52.104;4.268;2023-12-20T00:37:26;101500.75;;;7.44;79.92
76424;BME280;65257;52.104;4.268;2023-12-20T00:39:52;101504.38;;;7.43;79.86
76424;BME280;65257;52.104;4.268;2023-12-20T00:42:17;101503.09;;;7.48;79.91
76424;BME280;65257;52.104;4.268;2023-12-20T00:44:42;101502.81;;;7.53;80.26
76424;BME280;65257;52.104;4.268;2023-12-20T00:47:08;101499.00;;;7.57;80.61
76424;BME280;65257;52.104;4.268;2023-12-20T00:49:33;101495.50;;;7.56;80.59
76424;BME280;65257;52.104;4.268;2023-12-20T00:51:58;101491.19;;;7.55;80.50
76424;BME280;65257;52.104;4.268;2023-12-20T00:54:24;101491.00;;;7.58;80.80
76424;BME280;65257;52.104;4.268;2023-12-20T00:56:49;101492.59;;;7.61;80.06
76424;BME280;65257;52.104;4.268;2023-12-20T00:59:16;101490.69;;;7.63;79.98
76424;BME280;65257;52.104;4.268;2023-12-20T01:01:41;101489.63;;;7.65;79.72
76424;BME280;65257;52.104;4.268;2023-12-20T01:04:07;101486.06;;;7.66;79.36
76424;BME280;65257;52.104;4.268;2023-12-20T01:06:33;101492.16;;;7.67;79.55
76424;BME280;65257;52.104;4.268;2023-12-20T01:08:58;101481.56;;;7.67;80.00
76424;BME280;65257;52.104;4.268;2023-12-20T01:11:23;101482.53;;;7.66;79.57
76424;BME280;65257;52.104;4.268;2023-12-20T01:13:49;101479.97;;;7.64;79.30
76424;BME280;65257;52.104;4.268;2023-12-20T01:16:14;101501.81;;;7.68;79.48
76424;BME280;65257;52.104;4.268;2023-12-20T01:18:40;101507.78;;;7.71;79.59
76424;BME280;65257;52.104;4.268;2023-12-20T01:21:05;101487.13;;;7.76;79.95
76424;BME280;65257;52.104;4.268;2023-12-20T01:23:32;101497.53;;;7.79;79.30
76424;BME280;65257;52.104;4.268;2023-12-20T01:25:58;101501.00;;;7.80;79.22
76424;BME280;65257;52.104;4.268;2023-12-20T01:28:27;101487.75;;;7.80;79.28
76424;BME280;65257;52.104;4.268;2023-12-20T01:30:53;101485.97;;;7.80;79.71
76424;BME280;65257;52.104;4.268;2023-12-20T01:33:18;101468.28;;;7.81;80.20
76424;BME280;65257;52.104;4.268;2023-12-20T01:35:43;101486.09;;;7.79;79.73
76424;BME280;65257;52.104;4.268;2023-12-20T01:38:09;101487.03;;;7.78;79.96
76424;BME280;65257;52.104;4.268;2023-12-20T01:40:34;101484.28;;;7.79;80.09
76424;BME280;65257;52.104;4.268;2023-12-20T01:43:01;101485.03;;;7.81;80.28
76424;BME280;65257;52.104;4.268;2023-12-20T01:45:26;101495.69;;;7.80;79.71
76424;BME280;65257;52.104;4.268;2023-12-20T01:47:52;101479.19;;;7.76;79.74
76424;BME280;65257;52.104;4.268;2023-12-20T01:50:18;101475.16;;;7.71;79.79
76424;BME280;65257;52.104;4.268;2023-12-20T01:52:44;101478.09;;;7.66;79.91
76424;BME280;65257;52.104;4.268;2023-12-20T01:55:10;101486.31;;;7.62;79.46
76424;BME280;65257;52.104;4.268;2023-12-20T01:57:42;101491.81;;;7.59;79.94
76424;BME280;65257;52.104;4.268;2023-12-20T02:00:08;101490.13;;;7.58;80.04
76424;BME280;65257;52.104;4.268;2023-12-20T02:02:36;101477.94;;;7.55;79.89
76424;BME280;65257;52.104;4.268;2023-12-20T02:05:05;101481.72;;;7.51;79.61
76424;BME280;65257;52.104;4.268;2023-12-20T02:07:31;101475.91;;;7.46;80.30
76424;BME280;65257;52.104;4.268;2023-12-20T02:09:56;101487.63;;;7.42;80.19
76424;BME280;65257;52.104;4.268;2023-12-20T02:12:22;101478.97;;;7.40;80.29
76424;BME280;65257;52.104;4.268;2023-12-20T02:14:48;101473.00;;;7.36;79.59
76424;BME280;65257;52.104;4.268;2023-12-20T02:17:13;101481.69;;;7.38;79.25
76424;BME280;65257;52.104;4.268;2023-12-20T02:19:39;101483.41;;;7.39;78.69
76424;BME280;65257;52.104;4.268;2023-12-20T02:22:09;101483.22;;;7.43;79.51
76424;BME280;65257;52.104;4.268;2023-12-20T02:24:34;101475.16;;;7.44;79.79
76424;BME280;65257;52.104;4.268;2023-12-20T02:27:00;101482.22;;;7.44;79.72
76424;BME280;65257;52.104;4.268;2023-12-20T02:29:25;101482.91;;;7.47;79.62
76424;BME280;65257;52.104;4.268;2023-12-20T02:31:51;101473.91;;;7.50;80.38
76424;BME280;65257;52.104;4.268;2023-12-20T02:34:17;101453.41;;;7.53;80.41
76424;BME280;65257;52.104;4.268;2023-12-20T02:36:42;101460.47;;;7.53;80.04
76424;BME280;65257;52.104;4.268;2023-12-20T02:39:07;101461.34;;;7.53;80.52
76424;BME280;65257;52.104;4.268;2023-12-20T02:41:33;101457.84;;;7.53;80.67
76424;BME280;65257;52.104;4.268;2023-12-20T02:43:58;101462.47;;;7.49;80.33
76424;BME280;65257;52.104;4.268;2023-12-20T02:46:24;101464.44;;;7.46;80.59
76424;BME280;65257;52.104;4.268;2023-12-20T02:48:49;101437.25;;;7.44;80.16
76424;BME280;65257;52.104;4.268;2023-12-20T02:51:15;101453.13;;;7.44;80.29
76424;BME280;65257;52.104;4.268;2023-12-20T02:53:40;101435.47;;;7.44;79.87
76424;BME280;65257;52.104;4.268;2023-12-20T02:56:06;101438.53;;;7.51;79.70
76424;BME280;65257;52.104;4.268;2023-12-20T02:58:31;101438.53;;;7.51;79.44
76424;BME280;65257;52.104;4.268;2023-12-20T03:00:56;101424.66;;;7.47;79.45
76424;BME280;65257;52.104;4.268;2023-12-20T03:03:22;101430.91;;;7.46;79.35
76424;BME280;65257;52.104;4.268;2023-12-20T03:05:47;101441.41;;;7.48;79.83
76424;BME280;65257;52.104;4.268;2023-12-20T03:08:12;101450.09;;;7.50;80.14
76424;BME280;65257;52.104;4.268;2023-12-20T03:10:38;101441.41;;;7.48;79.47
76424;BME280;65257;52.104;4.268;2023-12-20T03:13:03;101451.13;;;7.47;78.68
76424;BME280;65257;52.104;4.268;2023-12-20T03:15:29;101460.88;;;7.47;78.46
76424;BME280;65257;52.104;4.268;2023-12-20T03:17:54;101473.25;;;7.46;78.34
76424;BME280;65257;52.104;4.268;2023-12-20T03:20:20;101446.03;;;7.44;78.87
76424;BME280;65257;52.104;4.268;2023-12-20T03:22:45;101455.78;;;7.44;78.93
76424;BME280;65257;52.104;4.268;2023-12-20T03:25:11;101462.84;;;7.43;79.29
76424;BME280;65257;52.104;4.268;2023-12-20T03:27:39;101469.97;;;7.43;79.88
76424;BME280;65257;52.104;4.268;2023-12-20T03:30:05;101447.94;;;7.42;80.03
76424;BME280;65257;52.104;4.268;2023-12-20T03:32:31;101460.44;;;7.40;79.81
76424;BME280;65257;52.104;4.268;2023-12-20T03:34:56;101429.94;;;7.34;79.94
76424;BME280;65257;52.104;4.268;2023-12-20T03:37:22;101440.72;;;7.31;79.86
76424;BME280;65257;52.104;4.268;2023-12-20T03:39:47;101443.34;;;7.31;80.13
76424;BME280;65257;52.104;4.268;2023-12-20T03:42:13;101454.03;;;7.30;80.41
76424;BME280;65257;52.104;4.268;2023-12-20T03:44:39;101441.84;;;7.27;80.20
76424;BME280;65257;52.104;4.268;2023-12-20T03:47:05;101446.19;;;7.28;80.06
76424;BME280;65257;52.104;4.268;2023-12-20T03:49:31;101448.72;;;7.30;79.92
76424;BME280;65257;52.104;4.268;2023-12-20T03:51:56;101454.13;;;7.28;80.13
76424;BME280;65257;52.104;4.268;2023-12-20T03:54:22;101445.34;;;7.28;80.58
76424;BME280;65257;52.104;4.268;2023-12-20T03:56:47;101452.53;;;7.26;80.63
76424;BME280;65257;52.104;4.268;2023-12-20T03:59:12;101447.44;;;7.23;80.97
76424;BME280;65257;52.104;4.268;2023-12-20T04:01:38;101443.09;;;7.22;81.01
76424;BME280;65257;52.104;4.268;2023-12-20T04:04:03;101451.00;;;7.22;80.72
76424;BME280;65257;52.104;4.268;2023-12-20T04:06:28;101454.44;;;7.24;80.46
76424;BME280;65257;52.104;4.268;2023-12-20T04:08:54;101449.16;;;7.24;80.55
76424;BME280;65257;52.104;4.268;2023-12-20T04:11:19;101447.53;;;7.21;80.14
76424;BME280;65257;52.104;4.268;2023-12-20T04:13:45;101451.31;;;7.17;80.47
76424;BME280;65257;52.104;4.268;2023-12-20T04:16:10;101451.50;;;7.14;80.46
76424;BME280;65257;52.104;4.268;2023-12-20T04:18:35;101448.00;;;7.14;80.53
76424;BME280;65257;52.104;4.268;2023-12-20T04:21:01;101448.13;;;7.12;80.25
76424;BME280;65257;52.104;4.268;2023-12-20T04:23:27;101445.47;;;7.12;80.43
76424;BME280;65257;52.104;4.268;2023-12-20T04:25:53;101437.53;;;7.12;80.07
76424;BME280;65257;52.104;4.268;2023-12-20T04:28:18;101435.84;;;7.11;80.48
76424;BME280;65257;52.104;4.268;2023-12-20T04:30:43;101437.53;;;7.12;80.86
76424;BME280;65257;52.104;4.268;2023-12-20T04:33:09;101431.41;;;7.12;80.91
76424;BME280;65257;52.104;4.268;2023-12-20T04:35:34;101423.47;;;7.12;80.70
76424;BME280;65257;52.104;4.268;2023-12-20T04:38:00;101430.16;;;7.17;81.12
76424;BME280;65257;52.104;4.268;2023-12-20T04:40:25;101428.25;;;7.19;80.99
76424;BME280;65257;52.104;4.268;2023-12-20T04:42:51;101413.34;;;7.18;81.07
76424;BME280;65257;52.104;4.268;2023-12-20T04:45:16;101418.72;;;7.17;80.84
76424;BME280;65257;52.104;4.268;2023-12-20T04:47:43;101403.72;;;7.17;80.75
76424;BME280;65257;52.104;4.268;2023-12-20T04:50:08;101409.00;;;7.17;80.84
76424;BME280;65257;52.104;4.268;2023-12-20T04:52:35;101389.00;;;7.13;80.78
76424;BME280;65257;52.104;4.268;2023-12-20T04:55:01;101390.78;;;7.13;80.85
76424;BME280;65257;52.104;4.268;2023-12-20T04:57:28;101403.16;;;7.12;81.34
76424;BME280;65257;52.104;4.268;2023-12-20T04:59:54;101416.50;;;7.11;81.20
76424;BME280;65257;52.104;4.268;2023-12-20T05:02:19;101413.84;;;7.11;81.18
76424;BME280;65257;52.104;4.268;2023-12-20T05:04:45;101418.09;;;7.13;81.29
76424;BME280;65257;52.104;4.268;2023-12-20T05:07:10;101437.53;;;7.12;80.97
76424;BME280;65257;52.104;4.268;2023-12-20T05:09:35;101433.97;;;7.13;81.41
76424;BME280;65257;52.104;4.268;2023-12-20T05:12:01;101432.16;;;7.14;81.42
76424;BME280;65257;52.104;4.268;2023-12-20T05:14:26;101429.50;;;7.14;82.04
76424;BME280;65257;52.104;4.268;2023-12-20T05:16:51;101433.13;;;7.13;81.69
76424;BME280;65257;52.104;4.268;2023-12-20T05:19:17;101434.03;;;7.12;81.66
76424;BME280;65257;52.104;4.268;2023-12-20T05:21:42;101438.41;;;7.13;81.68
76424;BME280;65257;52.104;4.268;2023-12-20T05:24:07;101437.25;;;7.17;81.99
76424;BME280;65257;52.104;4.268;2023-12-20T05:26:33;101435.81;;;7.25;81.83
76424;BME280;65257;52.104;4.268;2023-12-20T05:28:58;101428.22;;;7.33;81.69
76424;BME280;65257;52.104;4.268;2023-12-20T05:31:23;101432.81;;;7.44;81.39
76424;BME280;65257;52.104;4.268;2023-12-20T05:33:49;101422.03;;;7.47;81.00
76424;BME280;65257;52.104;4.268;2023-12-20T05:36:15;101432.63;;;7.47;81.11
76424;BME280;65257;52.104;4.268;2023-12-20T05:38:40;101422.97;;;7.46;81.24
76424;BME280;65257;52.104;4.268;2023-12-20T05:41:06;101416.72;;;7.47;81.19
76424;BME280;65257;52.104;4.268;2023-12-20T05:43:31;101421.06;;;7.48;81.08
76424;BME280;65257;52.104;4.268;2023-12-20T05:45:56;101404.97;;;7.51;81.33
76424;BME280;65257;52.104;4.268;2023-12-20T05:48:23;101414.44;;;7.55;81.53
76424;BME280;65257;52.104;4.268;2023-12-20T05:50:48;101406.91;;;7.62;81.33
76424;BME280;65257;52.104;4.268;2023-12-20T05:53:14;101404.81;;;7.67;81.02
76424;BME280;65257;52.104;4.268;2023-12-20T05:55:39;101418.50;;;7.73;80.48
76424;BME280;65257;52.104;4.268;2023-12-20T05:58:05;101411.28;;;7.75;80.84
76424;BME280;65257;52.104;4.268;2023-12-20T06:00:30;101418.19;;;7.78;80.50
76424;BME280;65257;52.104;4.268;2023-12-20T06:02:56;101404.00;;;7.79;80.03
76424;BME280;65257;52.104;4.268;2023-12-20T06:05:21;101415.31;;;7.81;80.38
76424;BME280;65257;52.104;4.268;2023-12-20T06:07:47;101409.09;;;7.82;80.18
76424;BME280;65257;52.104;4.268;2023-12-20T06:10:13;101415.97;;;7.84;80.32
76424;BME280;65257;52.104;4.268;2023-12-20T06:12:39;101393.94;;;7.84;80.10
76424;BME280;65257;52.104;4.268;2023-12-20T06:15:05;101406.31;;;7.83;80.13
76424;BME280;65257;52.104;4.268;2023-12-20T06:17:31;101404.00;;;7.79;80.24
76424;BME280;65257;52.104;4.268;2023-12-20T06:19:57;101401.09;;;7.69;80.24
76424;BME280;65257;52.104;4.268;2023-12-20T06:22:22;101386.72;;;7.61;80.14
76424;BME280;65257;52.104;4.268;2023-12-20T06:24:47;101387.22;;;7.53;80.50
76424;BME280;65257;52.104;4.268;2023-12-20T06:27:13;101407.63;;;7.51;80.58
76424;BME280;65257;52.104;4.268;2023-12-20T06:29:38;101380.63;;;7.46;80.53
76424;BME280;65257;52.104;4.268;2023-12-20T06:32:04;101394.81;;;7.45;80.93
76424;BME280;65257;52.104;4.268;2023-12-20T06:34:29;101395.75;;;7.44;80.91
76424;BME280;65257;52.104;4.268;2023-12-20T06:36:55;101404.88;;;7.40;81.17
76424;BME280;65257;52.104;4.268;2023-12-20T06:39:20;101413.00;;;7.37;81.65
76424;BME280;65257;52.104;4.268;2023-12-20T06:41:45;101408.53;;;7.37;81.37
76424;BME280;65257;52.104;4.268;2023-12-20T06:44:11;101394.38;;;7.38;81.84
76424;BME280;65257;52.104;4.268;2023-12-20T06:46:36;101391.63;;;7.40;81.52
76424;BME280;65257;52.104;4.268;2023-12-20T06:49:02;101391.63;;;7.40;81.58
76424;BME280;65257;52.104;4.268;2023-12-20T06:51:27;101372.25;;;7.39;82.20
76424;BME280;65257;52.104;4.268;2023-12-20T06:53:53;101365.25;;;7.38;81.77
76424;BME280;65257;52.104;4.268;2023-12-20T06:56:18;101385.50;;;7.39;81.44
76424;BME280;65257;52.104;4.268;2023-12-20T06:58:44;101366.19;;;7.37;82.11
76424;BME280;65257;52.104;4.268;2023-12-20T07:01:15;101372.34;;;7.38;81.83
76424;BME280;65257;52.104;4.268;2023-12-20T07:03:41;101368.84;;;7.37;81.96
76424;BME280;65257;52.104;4.268;2023-12-20T07:06:07;101370.66;;;7.37;81.93
76424;BME280;65257;52.104;4.268;2023-12-20T07:08:33;101362.81;;;7.35;81.86
76424;BME280;65257;52.104;4.268;2023-12-20T07:10:58;101377.56;;;7.39;81.88
76424;BME280;65257;52.104;4.268;2023-12-20T07:13:24;101377.56;;;7.39;81.89
76424;BME280;65257;52.104;4.268;2023-12-20T07:15:50;101367.06;;;7.38;81.98
76424;BME280;65257;52.104;4.268;2023-12-20T07:18:15;101365.47;;;7.35;81.93
76424;BME280;65257;52.104;4.268;2023-12-20T07:20:42;101367.25;;;7.35;82.04
76424;BME280;65257;52.104;4.268;2023-12-20T07:23:08;101364.59;;;7.35;82.16
76424;BME280;65257;52.104;4.268;2023-12-20T07:25:33;101373.41;;;7.35;81.71
76424;BME280;65257;52.104;4.268;2023-12-20T07:27:59;101365.38;;;7.37;82.04
76424;BME280;65257;52.104;4.268;2023-12-20T07:30:24;101375.75;;;7.40;82.12
76424;BME280;65257;52.104;4.268;2023-12-20T07:32:50;101384.44;;;7.42;82.12
76424;BME280;65257;52.104;4.268;2023-12-20T07:35:16;101356.91;;;7.45;82.44
76424;BME280;65257;52.104;4.268;2023-12-20T07:37:41;101387.41;;;7.50;82.38
76424;BME280;65257;52.104;4.268;2023-12-20T07:40:07;101393.34;;;7.54;82.27
76424;BME280;65257;52.104;4.268;2023-12-20T07:42:33;101404.69;;;7.56;82.68
76424;BME280;65257;52.104;4.268;2023-12-20T07:44:58;101390.19;;;7.61;82.55
76424;BME280;65257;52.104;4.268;2023-12-20T07:47:24;101395.72;;;7.71;82.32
76424;BME280;65257;52.104;4.268;2023-12-20T07:49:51;101391.16;;;7.73;82.39
76424;BME280;65257;52.104;4.268;2023-12-20T07:52:19;101392.03;;;7.73;81.71
76424;BME280;65257;52.104;4.268;2023-12-20T07:54:45;101402.41;;;7.76;81.75
76424;BME280;65257;52.104;4.268;2023-12-20T07:57:11;101410.34;;;7.76;82.07
76424;BME280;65257;52.104;4.268;2023-12-20T07:59:37;101419.75;;;7.80;81.92
76424;BME280;65257;52.104;4.268;2023-12-20T08:02:02;101408.25;;;7.81;81.89
76424;BME280;65257;52.104;4.268;2023-12-20T08:04:28;101419.38;;;7.86;81.63
76424;BME280;65257;52.104;4.268;2023-12-20T08:06:53;101401.16;;;7.94;81.67
76424;BME280;65257;52.104;4.268;2023-12-20T08:09:19;101396.28;;;8.01;81.35
76424;BME280;65257;52.104;4.268;2023-12-20T08:11:45;101408.78;;;8.12;81.37
76424;BME280;65257;52.104;4.268;2023-12-20T08:14:11;101402.00;;;8.20;81.11
76424;BME280;65257;52.104;4.268;2023-12-20T08:16:36;101387.69;;;8.23;80.99
76424;BME280;65257;52.104;4.268;2023-12-20T08:19:02;101415.03;;;8.23;80.83
76424;BME280;65257;52.104;4.268;2023-12-20T08:21:27;101398.72;;;8.17;80.56
76424;BME280;65257;52.104;4.268;2023-12-20T08:23:53;101394.72;;;8.11;81.12
76424;BME280;65257;52.104;4.268;2023-12-20T08:26:19;101406.44;;;8.07;81.09
76424;BME280;65257;52.104;4.268;2023-12-20T08:28:48;101407.50;;;8.05;81.07
76424;BME280;65257;52.104;4.268;2023-12-20T08:31:17;101395.84;;;8.07;81.23
76424;BME280;65257;52.104;4.268;2023-12-20T08:33:48;101401.81;;;8.11;81.13
76424;BME280;65257;52.104;4.268;2023-12-20T08:36:13;101411.22;;;8.15;80.73
76424;BME280;65257;52.104;4.268;2023-12-20T08:38:39;101409.88;;;8.22;80.41
76424;BME280;65257;52.104;4.268;2023-12-20T08:41:05;101414.53;;;8.31;79.68
76424;BME280;65257;52.104;4.268;2023-12-20T08:43:36;101412.75;;;8.31;79.75
76424;BME280;65257;52.104;4.268;2023-12-20T08:46:02;101417.72;;;8.36;80.24
76424;BME280;65257;52.104;4.268;2023-12-20T08:48:28;101406.69;;;8.42;79.76
76424;BME280;65257;52.104;4.268;2023-12-20T08:50:53;101406.16;;;8.49;79.48
76424;BME280;65257;52.104;4.268;2023-12-20T08:53:19;101408.25;;;8.57;79.13
76424;BME280;65257;52.104;4.268;2023-12-20T08:55:45;101393.00;;;8.60;79.22
76424;BME280;65257;52.104;4.268;2023-12-20T08:58:10;101391.19;;;8.61;78.91
76424;BME280;65257;52.104;4.268;2023-12-20T09:00:36;101387.34;;;8.65;78.83
76424;BME280;65257;52.104;4.268;2023-12-20T09:03:02;101385.13;;;8.72;78.81
76424;BME280;65257;52.104;4.268;2023-12-20T09:05:27;101384.38;;;8.70;78.75
76424;BME280;65257;52.104;4.268;2023-12-20T09:07:53;101380.88;;;8.69;79.14
76424;BME280;65257;52.104;4.268;2023-12-20T09:10:19;101380.88;;;8.69;78.76
76424;BME280;65257;52.104;4.268;2023-12-20T09:12:48;101372.16;;;8.67;78.74
76424;BME280;65257;52.104;4.268;2023-12-20T09:15:13;101365.16;;;8.79;78.62
76424;BME280;65257;52.104;4.268;2023-12-20T09:17:39;101388.97;;;8.91;77.97
76424;BME280;65257;52.104;4.268;2023-12-20T09:20:05;101382.38;;;8.97;78.29
76424;BME280;65257;52.104;4.268;2023-12-20T09:22:33;101389.25;;;10.16;75.90
76424;BME280;65257;52.104;4.268;2023-12-20T09:24:58;101382.53;;;11.42;72.06
76424;BME280;65257;52.104;4.268;2023-12-20T09:27:24;101374.63;;;11.41;69.90
76424;BME280;65257;52.104;4.268;2023-12-20T09:29:49;101376.34;;;12.55;67.30
76424;BME280;65257;52.104;4.268;2023-12-20T09:32:15;101370.50;;;13.20;64.54
76424;BME280;65257;52.104;4.268;2023-12-20T09:34:40;101372.81;;;14.19;61.54
76424;BME280;65257;52.104;4.268;2023-12-20T09:37:07;101363.47;;;14.42;60.19
76424;BME280;65257;52.104;4.268;2023-12-20T09:39:33;101351.06;;;15.13;58.03
76424;BME280;65257;52.104;4.268;2023-12-20T09:42:03;101355.53;;;16.01;55.00
76424;BME280;65257;52.104;4.268;2023-12-20T09:44:30;101389.66;;;14.48;56.97
76424;BME280;65257;52.104;4.268;2023-12-20T09:46:56;101377.47;;;12.92;60.94
76424;BME280;65257;52.104;4.268;2023-12-20T09:49:23;101373.94;;;13.01;61.95
76424;BME280;65257;52.104;4.268;2023-12-20T09:51:50;101377.13;;;13.35;61.47
76424;BME280;65257;52.104;4.268;2023-12-20T09:54:17;101368.41;;;14.91;57.87
76424;BME280;65257;52.104;4.268;2023-12-20T09:56:43;101369.28;;;15.98;54.41
76424;BME280;65257;52.104;4.268;2023-12-20T09:59:08;101384.50;;;15.71;54.05
76424;BME280;65257;52.104;4.268;2023-12-20T10:01:34;101364.19;;;14.34;56.78
76424;BME280;65257;52.104;4.268;2023-12-20T10:04:01;101366.91;;;14.15;57.14
76424;BME280;65257;52.104;4.268;2023-12-20T10:06:32;101381.63;;;13.44;59.00
76424;BME280;65257;52.104;4.268;2023-12-20T10:08:57;101395.28;;;12.42;62.04
76424;BME280;65257;52.104;4.268;2023-12-20T10:11:23;101388.91;;;12.64;63.06
76424;BME280;65257;52.104;4.268;2023-12-20T10:13:49;101402.78;;;12.98;61.44
76424;BME280;65257;52.104;4.268;2023-12-20T10:16:14;101395.91;;;12.04;63.61
76424;BME280;65257;52.104;4.268;2023-12-20T10:18:40;101387.06;;;11.51;65.29
76424;BME280;65257;52.104;4.268;2023-12-20T10:21:06;101394.56;;;12.19;64.62
76424;BME280;65257;52.104;4.268;2023-12-20T10:23:35;101378.84;;;12.86;63.34
76424;BME280;65257;52.104;4.268;2023-12-20T10:26:00;101381.19;;;13.10;62.60
76424;BME280;65257;52.104;4.268;2023-12-20T10:28:26;101377.97;;;14.39;60.04
76424;BME280;65257;52.104;4.268;2023-12-20T10:30:54;101380.06;;;13.13;61.15
76424;BME280;65257;52.104;4.268;2023-12-20T10:33:28;101376.44;;;12.44;63.32
76424;BME280;65257;52.104;4.268;2023-12-20T10:35:55;101371.22;;;13.31;62.64
76424;BME280;65257;52.104;4.268;2023-12-20T10:38:21;101358.56;;;14.92;58.42
76424;BME280;65257;52.104;4.268;2023-12-20T10:40:47;101363.31;;;15.86;55.20
76424;BME280;65257;52.104;4.268;2023-12-20T10:43:12;101352.22;;;16.66;53.62
76424;BME280;65257;52.104;4.268;2023-12-20T10:45:38;101357.22;;;17.03;51.95
76424;BME280;65257;52.104;4.268;2023-12-20T10:48:04;101364.19;;;17.46;51.04
76424;BME280;65257;52.104;4.268;2023-12-20T10:50:30;101357.50;;;17.66;49.48
76424;BME280;65257;52.104;4.268;2023-12-20T10:52:56;101347.16;;;16.29;52.04
76424;BME280;65257;52.104;4.268;2023-12-20T10:55:23;101342.94;;;17.02;51.45
76424;BME280;65257;52.104;4.268;2023-12-20T10:57:52;101346.47;;;15.76;52.86
76424;BME280;65257;52.104;4.268;2023-12-20T11:00:20;101347.47;;;15.04;54.76
76424;BME280;65257;52.104;4.268;2023-12-20T11:02:49;101359.50;;;13.90;57.02
76424;BME280;65257;52.104;4.268;2023-12-20T11:08:02;101358.94;;;12.20;62.80
76424;BME280;65257;52.104;4.268;2023-12-20T11:10:42;101367.38;;;11.75;64.30
76424;BME280;65257;52.104;4.268;2023-12-20T11:13:23;101365.44;;;11.45;66.03
76424;BME280;65257;52.104;4.268;2023-12-20T11:15:51;101366.13;;;11.26;66.63
76424;BME280;65257;52.104;4.268;2023-12-20T11:18:17;101354.91;;;11.12;67.41
76424;BME280;65257;52.104;4.268;2023-12-20T11:20:42;101341.50;;;11.02;67.84
76424;BME280;65257;52.104;4.268;2023-12-20T11:23:08;101332.81;;;11.00;67.87
76424;BME280;65257;52.104;4.268;2023-12-20T11:25:48;101328.34;;;11.00;68.22
76424;BME280;65257;52.104;4.268;2023-12-20T11:28:14;101331.22;;;11.09;68.29
76424;BME280;65257;52.104;4.268;2023-12-20T11:30:47;101314.81;;;11.24;68.07
76424;BME280;65257;52.104;4.268;2023-12-20T11:33:16;101302.03;;;11.39;67.45
76424;BME280;65257;52.104;4.268;2023-12-20T11:35:42;101317.56;;;11.54;67.08
76424;BME280;65257;52.104;4.268;2023-12-20T11:38:10;101315.31;;;11.71;66.69
76424;BME280;65257;52.104;4.268;2023-12-20T11:40:36;101306.00;;;11.44;67.45
76424;BME280;65257;52.104;4.268;2023-12-20T11:43:03;101308.94;;;11.10;67.88
76424;BME280;65257;52.104;4.268;2023-12-20T11:45:29;101311.09;;;10.84;68.35
76424;BME280;65257;52.104;4.268;2023-12-20T11:47:56;101324.66;;;10.70;69.83
76424;BME280;65257;52.104;4.268;2023-12-20T11:50:23;101321.53;;;10.65;69.63
76424;BME280;65257;52.104;4.268;2023-12-20T11:52:50;101319.72;;;11.08;69.39
76424;BME280;65257;52.104;4.268;2023-12-20T11:55:16;101331.50;;;10.94;68.78
76424;BME280;65257;52.104;4.268;2023-12-20T11:57:43;101319.50;;;11.32;68.14
76424;BME280;65257;52.104;4.268;2023-12-20T12:00:08;101311.31;;;11.86;66.16
76424;BME280;65257;52.104;4.268;2023-12-20T12:02:34;101321.94;;;12.06;65.25
76424;BME280;65257;52.104;4.268;2023-12-20T12:05:00;101328.47;;;11.51;66.64
76424;BME280;65257;52.104;4.268;2023-12-20T12:07:25;101327.91;;;11.16;67.86
76424;BME280;65257;52.104;4.268;2023-12-20T12:09:51;101324.47;;;10.93;68.25
76424;BME280;65257;52.104;4.268;2023-12-20T12:12:17;101322.09;;;10.79;68.81
76424;BME280;65257;52.104;4.268;2023-12-20T12:14:44;101330.44;;;10.75;69.04
76424;BME280;65257;52.104;4.268;2023-12-20T12:17:10;101323.09;;;10.67;69.23
76424;BME280;65257;52.104;4.268;2023-12-20T12:19:36;101333.97;;;10.64;69.44
76424;BME280;65257;52.104;4.268;2023-12-20T12:22:06;101316.34;;;10.63;69.42
76424;BME280;65257;52.104;4.268;2023-12-20T12:24:47;101304.13;;;10.72;69.60
76424;BME280;65257;52.104;4.268;2023-12-20T12:27:14;101306.63;;;10.73;70.10
76424;BME280;65257;52.104;4.268;2023-12-20T12:29:43;101308.19;;;10.76;69.97
76424;BME280;65257;52.104;4.268;2023-12-20T12:32:25;101308.34;;;10.74;70.20
76424;BME280;65257;52.104;4.268;2023-12-20T12:34:50;101293.19;;;10.75;70.49
76424;BME280;65257;52.104;4.268;2023-12-20T12:37:16;101285.22;;;10.75;70.42
76424;BME280;65257;52.104;4.268;2023-12-20T12:39:41;101298.03;;;10.81;70.88
76424;BME280;65257;52.104;4.268;2023-12-20T12:42:06;101296.44;;;10.89;70.61
76424;BME280;65257;52.104;4.268;2023-12-20T12:44:32;101285.66;;;10.91;70.39
76424;BME280;65257;52.104;4.268;2023-12-20T12:46:57;101279.06;;;10.74;70.63
76424;BME280;65257;52.104;4.268;2023-12-20T12:49:23;101285.00;;;10.67;70.89
76424;BME280;65257;52.104;4.268;2023-12-20T12:51:48;101285.03;;;10.56;70.72
76424;BME280;65257;52.104;4.268;2023-12-20T12:54:14;101271.63;;;10.46;71.51